Time;durP1;ratioP1;P1;durP2;ratioP2;P2;SDS_P1;SDS_P2;PMS_P1;PMS_P2;Temp;Humidity;BMP_temperature;BMP_pressure;BME280_temperature;BME280_humidity;BME280_pressure;Samples;Min_cycle;Max_cycle;Signal;HPM_P1;HPM_P2
2022/04/18 00:02:01;;;;;;;15.95;11.18;;;;;;;;;;4976642;28;20038;-81
2022/04/18 00:04:26;;;;;;;13.75;10.10;;;;;;;;;;4986193;28;20072;-80
2022/04/18 00:06:52;;;;;;;16.05;10.63;;;;;;;;;;4969296;28;20038;-82
2022/04/18 00:09:17;;;;;;;14.15;9.98;;;;;;;;;;4991151;28;20057;-81
2022/04/18 00:11:43;;;;;;;13.80;10.15;;;;;;;;;;4971959;28;20480;-87
2022/04/18 00:14:09;;;;;;;17.33;10.23;;;;;;;;;;4987926;28;20495;-81
2022/04/18 00:16:34;;;;;;;14.43;10.05;;;;;;;;;;4973495;28;20041;-81
2022/04/18 00:19:00;;;;;;;14.38;10.18;;;;;;;;;;4975674;28;20388;-79
2022/04/18 00:21:25;;;;;;;15.60;9.88;;;;;;;;;;4973385;28;20555;-87
2022/04/18 00:23:50;;;;;;;12.35;9.60;;;;;;;;;;4985870;28;20165;-81
2022/04/18 00:26:16;;;;;;;13.63;9.85;;;;;;;;;;4977771;28;20400;-79
2022/04/18 00:28:41;;;;;;;15.30;10.15;;;;;;;;;;4985346;28;20137;-81
2022/04/18 00:31:07;;;;;;;13.80;10.07;;;;;;;;;;4975825;28;20037;-88
2022/04/18 00:33:33;;;;;;;13.32;9.85;;;;;;;;;;4984576;28;20108;-82
2022/04/18 00:35:59;;;;;;;14.20;9.75;;;;;;;;;;4973257;28;20030;-81
2022/04/18 00:38:24;;;;;;;14.32;9.80;;;;;;;;;;4972976;28;20037;-80
2022/04/18 00:40:50;;;;;;;12.02;8.82;;;;;;;;;;4968071;28;20038;-80
2022/04/18 00:43:15;;;;;;;13.93;8.98;;;;;;;;;;4994421;28;20102;-82
2022/04/18 00:45:41;;;;;;;13.75;9.38;;;;;;;;;;4975352;28;20348;-81
2022/04/18 00:48:06;;;;;;;13.82;8.98;;;;;;;;;;4981938;28;20399;-81
2022/04/18 00:50:34;;;;;;;14.18;9.43;;;;;;;;;;4964988;28;20113;-81
2022/04/18 00:53:01;;;;;;;12.32;8.95;;;;;;;;;;4969606;28;20034;-83
2022/04/18 00:55:28;;;;;;;11.88;8.48;;;;;;;;;;4988128;28;20018;-81
2022/04/18 00:57:55;;;;;;;11.38;8.77;;;;;;;;;;4995163;28;20037;-79
2022/04/18 01:00:22;;;;;;;13.40;9.00;;;;;;;;;;4983141;28;20030;-80
2022/04/18 01:02:48;;;;;;;14.73;9.10;;;;;;;;;;4971989;28;20104;-79
2022/04/18 01:05:13;;;;;;;12.18;8.70;;;;;;;;;;4974308;28;20014;-82
2022/04/18 01:07:39;;;;;;;11.73;8.10;;;;;;;;;;4975575;28;20088;-81
2022/04/18 01:10:06;;;;;;;12.45;8.45;;;;;;;;;;4981383;28;20045;-81
2022/04/18 01:12:31;;;;;;;13.27;8.25;;;;;;;;;;4979546;28;20038;-89
2022/04/18 01:14:57;;;;;;;12.25;7.90;;;;;;;;;;4980419;28;20026;-83
2022/04/18 01:17:22;;;;;;;10.35;7.68;;;;;;;;;;4982250;28;20022;-81
2022/04/18 01:19:47;;;;;;;11.77;7.75;;;;;;;;;;4990561;28;20381;-83
2022/04/18 01:22:13;;;;;;;10.48;7.63;;;;;;;;;;4978152;28;20023;-83
2022/04/18 01:30:11;;;;;;;10.68;6.80;;;;;;;;;;4995876;28;20395;-88
2022/04/18 01:32:36;;;;;;;10.60;7.28;;;;;;;;;;4980009;28;20027;-80
2022/04/18 01:35:02;;;;;;;10.27;6.97;;;;;;;;;;4976126;28;20034;-83
2022/04/18 01:37:27;;;;;;;11.32;7.00;;;;;;;;;;4973847;28;20049;-83
2022/04/18 01:39:53;;;;;;;10.80;6.88;;;;;;;;;;4977595;28;20035;-81
2022/04/18 01:42:18;;;;;;;9.70;6.53;;;;;;;;;;4993085;28;20027;-82
2022/04/18 01:44:43;;;;;;;10.25;6.97;;;;;;;;;;4991046;28;20470;-83
2022/04/18 01:47:09;;;;;;;10.45;6.93;;;;;;;;;;4979594;28;20396;-88
2022/04/18 01:49:34;;;;;;;10.43;6.68;;;;;;;;;;4994369;28;20077;-83
2022/04/18 01:51:59;;;;;;;9.50;6.45;;;;;;;;;;4971767;28;20025;-82
2022/04/18 01:54:25;;;;;;;10.55;6.50;;;;;;;;;;4970961;28;20034;-88
2022/04/18 01:56:50;;;;;;;9.90;6.90;;;;;;;;;;4978917;28;20038;-81
2022/04/18 01:59:15;;;;;;;10.23;6.55;;;;;;;;;;4996314;28;20389;-81
2022/04/18 02:01:41;;;;;;;8.23;5.95;;;;;;;;;;4974446;28;20033;-81
2022/04/18 02:04:07;;;;;;;10.55;6.38;;;;;;;;;;4972955;28;20031;-81
2022/04/18 02:06:33;;;;;;;10.15;6.05;;;;;;;;;;4973569;28;20399;-83
2022/04/18 02:08:58;;;;;;;8.20;5.82;;;;;;;;;;4971848;28;20023;-80
2022/04/18 02:11:23;;;;;;;9.43;6.10;;;;;;;;;;4979496;28;20045;-82
2022/04/18 02:13:51;;;;;;;9.73;6.10;;;;;;;;;;4999747;28;20058;-80
2022/04/18 02:16:16;;;;;;;8.60;5.60;;;;;;;;;;4971245;28;20022;-83
2022/04/18 02:18:41;;;;;;;7.50;5.80;;;;;;;;;;4972853;28;20084;-88
2022/04/18 02:21:11;;;;;;;9.10;5.88;;;;;;;;;;4977059;28;20029;-80
2022/04/18 02:23:37;;;;;;;9.20;6.03;;;;;;;;;;4981081;28;20031;-80
2022/04/18 02:26:03;;;;;;;8.70;5.68;;;;;;;;;;4975547;28;20034;-83
2022/04/18 02:28:28;;;;;;;10.80;5.55;;;;;;;;;;4982936;28;20124;-80
2022/04/18 02:30:53;;;;;;;9.07;5.13;;;;;;;;;;4976602;28;20121;-81
2022/04/18 02:33:19;;;;;;;7.22;5.20;;;;;;;;;;4978488;28;20030;-81
2022/04/18 02:35:44;;;;;;;7.95;5.20;;;;;;;;;;4977490;28;20018;-81
2022/04/18 02:38:09;;;;;;;8.15;5.57;;;;;;;;;;4979890;28;21314;-81
2022/04/18 02:40:35;;;;;;;10.25;5.55;;;;;;;;;;4975336;28;20054;-81
2022/04/18 02:43:01;;;;;;;8.70;5.38;;;;;;;;;;4994666;28;20092;-83
2022/04/18 02:45:29;;;;;;;8.07;5.07;;;;;;;;;;4973867;28;20022;-83
2022/04/18 02:47:54;;;;;;;7.72;5.20;;;;;;;;;;4984324;28;20026;-80
2022/04/18 02:50:19;;;;;;;8.18;5.32;;;;;;;;;;4973516;28;20077;-81
2022/04/18 02:52:45;;;;;;;7.28;5.07;;;;;;;;;;4977772;28;20392;-89
2022/04/18 02:55:11;;;;;;;7.85;5.05;;;;;;;;;;4972109;28;20029;-81
2022/04/18 02:57:37;;;;;;;7.60;5.00;;;;;;;;;;5007848;28;20052;-80
2022/04/18 03:00:03;;;;;;;7.10;5.20;;;;;;;;;;5009268;28;20410;-89
2022/04/18 03:02:29;;;;;;;7.55;4.72;;;;;;;;;;5003120;28;20053;-80
2022/04/18 03:04:54;;;;;;;9.82;5.45;;;;;;;;;;5018116;28;20479;-83
2022/04/18 03:07:19;;;;;;;7.10;4.82;;;;;;;;;;4995253;28;20077;-81
2022/04/18 03:09:46;;;;;;;7.72;5.07;;;;;;;;;;5008637;28;20509;-80
2022/04/18 03:12:11;;;;;;;7.45;5.20;;;;;;;;;;4999609;28;20029;-82
2022/04/18 03:14:37;;;;;;;7.35;5.25;;;;;;;;;;4994843;28;20029;-83
2022/04/18 03:17:03;;;;;;;7.50;4.95;;;;;;;;;;4996252;28;20579;-86
2022/04/18 03:19:28;;;;;;;7.82;5.18;;;;;;;;;;5001029;28;20037;-81
2022/04/18 03:21:54;;;;;;;8.32;4.70;;;;;;;;;;5018164;28;20462;-83
2022/04/18 03:24:21;;;;;;;7.65;4.93;;;;;;;;;;5005984;28;20045;-80
2022/04/18 03:26:46;;;;;;;7.05;4.40;;;;;;;;;;5004516;28;20029;-83
2022/04/18 03:29:11;;;;;;;6.32;4.22;;;;;;;;;;4998419;28;20649;-79
2022/04/18 03:31:37;;;;;;;6.53;4.47;;;;;;;;;;5002358;28;20068;-80
2022/04/18 03:34:02;;;;;;;7.93;4.15;;;;;;;;;;5002591;28;20045;-83
2022/04/18 03:41:55;;;;;;;6.97;3.85;;;;;;;;;;5014909;28;20036;-83
2022/04/18 03:44:21;;;;;;;6.15;3.83;;;;;;;;;;5009893;28;20026;-79
2022/04/18 03:46:46;;;;;;;5.38;3.60;;;;;;;;;;4999049;28;20410;-81
2022/04/18 03:49:12;;;;;;;7.65;4.25;;;;;;;;;;5008187;28;20058;-90
2022/04/18 03:51:37;;;;;;;7.60;3.58;;;;;;;;;;5017149;28;20064;-81
2022/04/18 03:54:02;;;;;;;7.28;4.15;;;;;;;;;;4992806;28;20026;-89
2022/04/18 03:56:28;;;;;;;7.60;3.47;;;;;;;;;;4988228;28;20044;-81
2022/04/18 03:58:53;;;;;;;5.82;3.60;;;;;;;;;;4993649;28;20029;-81
2022/04/18 04:01:19;;;;;;;5.88;3.80;;;;;;;;;;4997382;28;20040;-80
2022/04/18 04:03:44;;;;;;;5.40;3.63;;;;;;;;;;5003407;28;20578;-81
2022/04/18 04:06:10;;;;;;;6.50;3.75;;;;;;;;;;5010067;28;20531;-79
2022/04/18 04:08:35;;;;;;;6.57;3.60;;;;;;;;;;4989088;28;20388;-89
2022/04/18 04:11:01;;;;;;;5.15;3.40;;;;;;;;;;4988448;28;20022;-81
2022/04/18 04:13:26;;;;;;;6.50;3.70;;;;;;;;;;4993212;28;22376;-83
2022/04/18 04:15:51;;;;;;;5.95;3.40;;;;;;;;;;4988287;28;20563;-83
2022/04/18 04:18:17;;;;;;;5.47;3.35;;;;;;;;;;5002898;28;20030;-81
2022/04/18 04:20:42;;;;;;;6.50;3.53;;;;;;;;;;5006487;28;20073;-87
2022/04/18 04:23:07;;;;;;;5.90;3.95;;;;;;;;;;5018586;28;20506;-80
2022/04/18 04:25:33;;;;;;;6.57;3.80;;;;;;;;;;4997912;28;20033;-83
2022/04/18 04:27:58;;;;;;;6.85;3.85;;;;;;;;;;5011838;28;20436;-81
2022/04/18 04:30:24;;;;;;;8.38;4.25;;;;;;;;;;4989622;28;20399;-80
2022/04/18 04:32:50;;;;;;;7.43;4.03;;;;;;;;;;4995884;28;20447;-79
2022/04/18 04:35:17;;;;;;;7.70;4.07;;;;;;;;;;5010625;28;20013;-88
2022/04/18 04:37:42;;;;;;;6.28;3.90;;;;;;;;;;5012929;28;20291;-79
2022/04/18 04:40:08;;;;;;;6.95;3.88;;;;;;;;;;5009879;28;20038;-80
2022/04/18 04:42:34;;;;;;;5.70;3.78;;;;;;;;;;4990216;28;20527;-86
2022/04/18 04:44:59;;;;;;;6.93;4.00;;;;;;;;;;5010448;28;20037;-81
2022/04/18 04:47:25;;;;;;;6.95;4.13;;;;;;;;;;4991929;28;20030;-89
2022/04/18 04:49:50;;;;;;;6.55;3.40;;;;;;;;;;5009297;28;20151;-83
2022/04/18 04:52:15;;;;;;;6.13;3.75;;;;;;;;;;5012392;28;20496;-82
2022/04/18 04:54:41;;;;;;;8.43;3.90;;;;;;;;;;4995010;28;21005;-83
2022/04/18 04:57:06;;;;;;;6.65;3.53;;;;;;;;;;4994103;28;20080;-81
2022/04/18 04:59:31;;;;;;;5.85;3.65;;;;;;;;;;4993650;28;20036;-88
2022/04/18 05:01:57;;;;;;;6.32;3.63;;;;;;;;;;5006685;28;20050;-83
2022/04/18 05:04:25;;;;;;;7.43;3.80;;;;;;;;;;5008556;28;20188;-83
2022/04/18 05:06:51;;;;;;;5.68;3.47;;;;;;;;;;5012126;28;20028;-89
2022/04/18 05:09:16;;;;;;;5.35;3.60;;;;;;;;;;4992718;28;20436;-89
2022/04/18 05:11:42;;;;;;;6.35;3.80;;;;;;;;;;4986471;28;20065;-83
2022/04/18 05:14:07;;;;;;;7.20;4.07;;;;;;;;;;4986846;28;20014;-81
2022/04/18 05:16:32;;;;;;;7.15;3.80;;;;;;;;;;5001974;28;20034;-79
2022/04/18 05:18:58;;;;;;;8.02;3.80;;;;;;;;;;4998880;28;20033;-88
2022/04/18 05:21:23;;;;;;;6.13;3.78;;;;;;;;;;5016851;28;20084;-83
2022/04/18 05:23:49;;;;;;;5.38;3.58;;;;;;;;;;4990548;28;21036;-81
2022/04/18 05:26:15;;;;;;;6.30;3.90;;;;;;;;;;4994482;28;20033;-81
2022/04/18 05:28:41;;;;;;;6.75;4.10;;;;;;;;;;5017899;28;20022;-89
2022/04/18 05:31:07;;;;;;;6.32;4.20;;;;;;;;;;4999504;28;20036;-83
2022/04/18 05:33:32;;;;;;;6.07;3.67;;;;;;;;;;4993677;28;20026;-81
2022/04/18 05:35:58;;;;;;;6.30;3.90;;;;;;;;;;5008465;28;20028;-83
2022/04/18 05:38:23;;;;;;;6.05;3.67;;;;;;;;;;4995184;28;20033;-89
2022/04/18 05:40:48;;;;;;;7.35;4.10;;;;;;;;;;4999620;28;20395;-89
2022/04/18 05:43:17;;;;;;;6.78;3.92;;;;;;;;;;4993473;28;20053;-89
2022/04/18 05:45:42;;;;;;;6.07;3.80;;;;;;;;;;4995553;28;20076;-80
2022/04/18 05:48:08;;;;;;;6.57;3.70;;;;;;;;;;5014109;28;20085;-80
2022/04/18 05:50:34;;;;;;;6.60;4.03;;;;;;;;;;4997363;28;20056;-89
2022/04/18 05:53:00;;;;;;;5.47;3.50;;;;;;;;;;4993037;28;20113;-79
2022/04/18 05:55:25;;;;;;;6.70;3.78;;;;;;;;;;5000478;28;20163;-79
2022/04/18 05:57:52;;;;;;;6.30;3.47;;;;;;;;;;4996027;28;20042;-81
2022/04/18 06:00:20;;;;;;;7.60;3.95;;;;;;;;;;5013519;28;20032;-81
2022/04/18 06:02:46;;;;;;;6.38;3.40;;;;;;;;;;5011864;28;20483;-80
2022/04/18 06:05:12;;;;;;;6.05;3.80;;;;;;;;;;4995982;28;20026;-84
2022/04/18 06:07:39;;;;;;;5.80;3.63;;;;;;;;;;4997174;28;20509;-80
2022/04/18 06:10:06;;;;;;;5.80;3.83;;;;;;;;;;4997089;28;20038;-79
2022/04/18 06:12:31;;;;;;;5.68;3.63;;;;;;;;;;5001162;28;20025;-81
2022/04/18 06:14:57;;;;;;;7.57;3.72;;;;;;;;;;4999180;28;20022;-89
2022/04/18 06:17:22;;;;;;;6.88;3.60;;;;;;;;;;4993653;28;20052;-83
2022/04/18 06:19:49;;;;;;;5.55;3.75;;;;;;;;;;5007815;28;20026;-83
2022/04/18 06:22:16;;;;;;;5.70;3.95;;;;;;;;;;4993026;28;20036;-80
2022/04/18 06:24:41;;;;;;;6.75;4.07;;;;;;;;;;4993604;28;20026;-81
2022/04/18 06:27:07;;;;;;;6.13;3.47;;;;;;;;;;4992657;28;20408;-80
2022/04/18 06:29:32;;;;;;;6.82;4.00;;;;;;;;;;4997906;28;20079;-88
2022/04/18 06:31:58;;;;;;;4.80;3.58;;;;;;;;;;4989714;28;20068;-88
2022/04/18 06:34:25;;;;;;;6.03;3.60;;;;;;;;;;4998041;28;20029;-80
2022/04/18 06:36:51;;;;;;;5.15;3.60;;;;;;;;;;5003870;28;20030;-84
2022/04/18 06:39:16;;;;;;;6.57;3.70;;;;;;;;;;5003036;28;20037;-80
2022/04/18 06:41:41;;;;;;;5.43;3.88;;;;;;;;;;5002014;28;20108;-83
2022/04/18 06:44:07;;;;;;;5.45;3.60;;;;;;;;;;5016294;28;20083;-83
2022/04/18 06:46:32;;;;;;;6.80;4.20;;;;;;;;;;4993568;28;20064;-79
2022/04/18 06:48:57;;;;;;;5.63;3.60;;;;;;;;;;5002122;28;20024;-80
2022/04/18 06:51:22;;;;;;;6.85;3.88;;;;;;;;;;4992028;28;20061;-83
2022/04/18 06:53:48;;;;;;;6.95;4.35;;;;;;;;;;5000170;28;20034;-89
2022/04/18 06:58:57;;;;;;;6.15;3.70;;;;;;;;;;5011912;28;20517;-83
2022/04/18 07:01:22;;;;;;;7.10;3.53;;;;;;;;;;5018970;28;20116;-80
2022/04/18 07:03:48;;;;;;;6.10;3.63;;;;;;;;;;5000992;28;20026;-83
2022/04/18 07:06:13;;;;;;;5.68;3.45;;;;;;;;;;5020309;28;20049;-80
2022/04/18 07:08:39;;;;;;;4.90;3.22;;;;;;;;;;5004456;28;20079;-83
2022/04/18 07:11:04;;;;;;;5.75;3.53;;;;;;;;;;5029176;28;20037;-81
2022/04/18 07:13:30;;;;;;;6.63;3.90;;;;;;;;;;5004384;28;20423;-87
2022/04/18 07:15:55;;;;;;;6.38;3.50;;;;;;;;;;5022443;28;20029;-81
2022/04/18 07:18:20;;;;;;;4.82;3.10;;;;;;;;;;5008404;28;20029;-85
2022/04/18 07:20:52;;;;;;;5.57;3.50;;;;;;;;;;5018487;28;20502;-83
2022/04/18 07:23:20;;;;;;;5.35;3.55;;;;;;;;;;5021166;28;20017;-81
2022/04/18 07:25:54;;;;;;;4.97;3.38;;;;;;;;;;5018675;28;20049;-80
2022/04/18 07:28:23;;;;;;;5.13;3.55;;;;;;;;;;4994992;28;20517;-80
2022/04/18 07:30:54;;;;;;;6.30;3.80;;;;;;;;;;5009506;28;20123;-79
2022/04/18 07:33:23;;;;;;;5.93;3.30;;;;;;;;;;5014551;28;20541;-81
2022/04/18 07:35:54;;;;;;;5.20;3.25;;;;;;;;;;5001652;28;20058;-84
2022/04/18 07:41:30;;;;;;;4.80;3.20;;;;;;;;;;5025423;28;20068;-80
2022/04/18 07:43:57;;;;;;;4.60;3.17;;;;;;;;;;4999602;28;20544;-79
2022/04/18 07:46:25;;;;;;;5.35;3.55;;;;;;;;;;5003630;28;20037;-81
2022/04/18 07:48:57;;;;;;;5.25;3.80;;;;;;;;;;5022056;28;20057;-83
2022/04/18 07:51:31;;;;;;;7.03;3.70;;;;;;;;;;5013892;28;20030;-87
2022/04/18 07:53:58;;;;;;;4.93;3.55;;;;;;;;;;5019776;28;20476;-81
2022/04/18 07:56:27;;;;;;;6.10;3.10;;;;;;;;;;5002526;28;20037;-89
2022/04/18 07:59:00;;;;;;;4.43;3.00;;;;;;;;;;4989833;28;20041;-81
2022/04/18 08:01:28;;;;;;;4.97;3.33;;;;;;;;;;4985590;28;20488;-89
2022/04/18 08:04:01;;;;;;;5.78;3.42;;;;;;;;;;4998327;28;20499;-82
2022/04/18 08:06:31;;;;;;;4.50;2.83;;;;;;;;;;4989269;28;20034;-85
2022/04/18 08:09:00;;;;;;;4.65;3.05;;;;;;;;;;4997459;28;20113;-88
2022/04/18 08:11:31;;;;;;;5.38;3.20;;;;;;;;;;5004726;28;20084;-79
2022/04/18 08:13:59;;;;;;;5.03;3.13;;;;;;;;;;4994606;28;20117;-83
2022/04/18 08:16:31;;;;;;;5.10;2.97;;;;;;;;;;4990693;28;20063;-80
2022/04/18 08:19:00;;;;;;;4.05;2.83;;;;;;;;;;4987160;28;20057;-81
2022/04/18 08:21:34;;;;;;;5.00;2.88;;;;;;;;;;4972972;28;20026;-79
2022/04/18 08:24:04;;;;;;;4.50;2.75;;;;;;;;;;4991709;28;20071;-83
2022/04/18 08:26:32;;;;;;;5.43;3.22;;;;;;;;;;4996245;28;20038;-83
2022/04/18 08:29:06;;;;;;;7.90;3.55;;;;;;;;;;4993255;28;20394;-80
2022/04/18 08:31:31;;;;;;;5.35;2.90;;;;;;;;;;4984067;28;20030;-80
2022/04/18 08:34:03;;;;;;;5.50;3.05;;;;;;;;;;5014758;28;20026;-80
2022/04/18 08:36:35;;;;;;;5.72;3.33;;;;;;;;;;4991296;28;20080;-79
2022/04/18 08:39:03;;;;;;;5.40;3.03;;;;;;;;;;5013562;28;20029;-81
2022/04/18 08:41:38;;;;;;;4.88;3.42;;;;;;;;;;4991361;28;20892;-80
2022/04/18 08:44:04;;;;;;;4.95;3.20;;;;;;;;;;4989505;28;20517;-87
2022/04/18 08:46:38;;;;;;;5.53;3.20;;;;;;;;;;5006313;28;20026;-79
2022/04/18 08:55:10;;;;;;;6.85;3.50;;;;;;;;;;4990553;28;20082;-87
2022/04/18 08:57:36;;;;;;;5.63;3.63;;;;;;;;;;4986650;28;20050;-88
2022/04/18 09:00:09;;;;;;;4.72;3.58;;;;;;;;;;4992633;28;20042;-82
2022/04/18 09:02:37;;;;;;;5.32;3.50;;;;;;;;;;5007345;28;20030;-82
2022/04/18 09:05:11;;;;;;;5.00;3.40;;;;;;;;;;4994482;28;20029;-81
2022/04/18 09:07:42;;;;;;;5.05;3.20;;;;;;;;;;4995692;28;20109;-80
2022/04/18 09:10:08;;;;;;;5.68;3.50;;;;;;;;;;4986124;28;20046;-81
2022/04/18 09:12:46;;;;;;;5.22;3.25;;;;;;;;;;4992936;28;20408;-80
2022/04/18 09:15:40;;;;;;;5.32;3.50;;;;;;;;;;4988949;28;20034;-82
2022/04/18 09:18:17;;;;;;;4.22;3.13;;;;;;;;;;4986488;28;20499;-82
2022/04/18 09:23:41;;;;;;;5.35;3.17;;;;;;;;;;4988976;28;20033;-80
2022/04/18 09:26:13;;;;;;;4.45;3.30;;;;;;;;;;4986954;28;20472;-85
2022/04/18 09:28:44;;;;;;;4.45;2.90;;;;;;;;;;4995615;28;20030;-89
2022/04/18 09:31:13;;;;;;;4.10;2.92;;;;;;;;;;4990130;28;20038;-81
2022/04/18 09:34:09;;;;;;;;;;;;;;;;;;;;;
2022/04/18 09:37:19;;;;;;;6.43;2.90;;;;;;;;;;4993669;28;20018;-80
2022/04/18 09:39:51;;;;;;;4.28;2.90;;;;;;;;;;4997124;28;20038;-81
2022/04/18 09:42:17;;;;;;;4.72;2.88;;;;;;;;;;5000659;28;20116;-80
2022/04/18 09:44:45;;;;;;;4.57;3.00;;;;;;;;;;4997553;28;20058;-81
2022/04/18 09:47:16;;;;;;;5.10;3.03;;;;;;;;;;4994224;28;20032;-80
2022/04/18 09:49:45;;;;;;;4.30;2.63;;;;;;;;;;4989518;28;20030;-78
2022/04/18 09:52:19;;;;;;;5.40;2.90;;;;;;;;;;4997673;28;20037;-80
2022/04/18 09:55:11;;;;;;;4.90;2.80;;;;;;;;;;4995376;28;20064;-82
2022/04/18 09:57:45;;;;;;;6.35;3.08;;;;;;;;;;4975020;28;20053;-79
2022/04/18 10:00:16;;;;;;;5.10;2.88;;;;;;;;;;4991399;28;20046;-82
2022/04/18 10:02:47;;;;;;;7.00;2.95;;;;;;;;;;4995517;28;20054;-79
2022/04/18 10:05:23;;;;;;;5.28;2.85;;;;;;;;;;4983888;28;20049;-80
2022/04/18 10:07:49;;;;;;;4.40;3.17;;;;;;;;;;4994881;28;20129;-81
2022/04/18 10:10:19;;;;;;;3.92;2.92;;;;;;;;;;4988932;28;20479;-79
2022/04/18 10:12:50;;;;;;;4.53;2.60;;;;;;;;;;4994962;28;20085;-80
2022/04/18 10:15:19;;;;;;;4.18;2.78;;;;;;;;;;4984053;28;20784;-80
2022/04/18 10:17:51;;;;;;;4.75;2.78;;;;;;;;;;4986775;28;20037;-80
2022/04/18 10:20:51;;;;;;;5.47;3.75;;;;;;;;;;4983928;28;20027;-87
2022/04/18 10:23:54;;;;;;;3.97;2.78;;;;;;;;;;4986574;28;20026;-86
2022/04/18 10:26:57;;;;;;;4.53;2.85;;;;;;;;;;4993999;28;20495;-81
2022/04/18 10:29:26;;;;;;;4.32;2.88;;;;;;;;;;4981764;28;20069;-83
2022/04/18 10:31:53;;;;;;;5.15;3.10;;;;;;;;;;4978071;28;20050;-79
2022/04/18 11:16:42;;;;;;;4.80;3.10;;;;;;;;;;4866083;29;20139;-80
2022/04/18 11:19:14;;;;;;;5.47;2.97;;;;;;;;;;4865764;29;20049;-79
2022/04/18 11:22:14;;;;;;;4.60;3.08;;;;;;;;;;4845973;29;20044;-78
2022/04/18 11:24:49;;;;;;;4.15;2.95;;;;;;;;;;4848376;29;20036;-75
2022/04/18 11:27:22;;;;;;;3.70;2.60;;;;;;;;;;4862831;29;20036;-74
2022/04/18 11:30:07;;;;;;;4.88;2.90;;;;;;;;;;4844185;29;20528;-74
2022/04/18 11:32:37;;;;;;;3.80;2.30;;;;;;;;;;4852947;29;20048;-79
2022/04/18 11:35:06;;;;;;;3.60;2.60;;;;;;;;;;4856004;29;20075;-80
2022/04/18 11:37:33;;;;;;;3.45;2.42;;;;;;;;;;4858083;29;20052;-77
2022/04/18 11:40:01;;;;;;;4.10;2.55;;;;;;;;;;4861244;29;20030;-79
2022/04/18 11:42:29;;;;;;;3.90;2.60;;;;;;;;;;4854880;29;20052;-78
2022/04/18 11:44:57;;;;;;;3.10;2.10;;;;;;;;;;4844321;29;20031;-77
2022/04/18 11:47:25;;;;;;;3.53;2.30;;;;;;;;;;4846170;29;20096;-79
2022/04/18 11:49:58;;;;;;;3.60;2.60;;;;;;;;;;4859059;29;20452;-76
2022/04/18 11:52:32;;;;;;;4.03;2.50;;;;;;;;;;4841891;29;20033;-76
2022/04/18 11:55:01;;;;;;;4.47;2.58;;;;;;;;;;4859568;29;20119;-77
2022/04/18 11:57:28;;;;;;;3.47;2.38;;;;;;;;;;4864832;29;20045;-78
2022/04/18 11:59:54;;;;;;;4.95;2.70;;;;;;;;;;4860943;29;20731;-78
2022/04/18 12:08:06;;;;;;;4.47;2.22;;;;;;;;;;4861042;29;20056;-76
2022/04/18 12:10:35;;;;;;;4.43;2.33;;;;;;;;;;4845207;29;20124;-78
2022/04/18 12:13:04;;;;;;;4.53;2.90;;;;;;;;;;4866892;29;20029;-78
2022/04/18 12:15:30;;;;;;;5.80;2.53;;;;;;;;;;4867995;29;20081;-78
2022/04/18 12:17:57;;;;;;;4.05;2.67;;;;;;;;;;4869343;29;20037;-77
2022/04/18 12:20:26;;;;;;;4.55;3.08;;;;;;;;;;4865864;29;20079;-80
2022/04/18 12:22:58;;;;;;;4.35;2.80;;;;;;;;;;4860375;29;20491;-77
2022/04/18 12:25:27;;;;;;;5.82;2.75;;;;;;;;;;4851369;29;20116;-79
2022/04/18 12:27:54;;;;;;;4.60;3.03;;;;;;;;;;4860927;29;20028;-76
2022/04/18 12:30:19;;;;;;;4.95;3.10;;;;;;;;;;4854092;29;20415;-78
2022/04/18 12:32:47;;;;;;;4.68;3.00;;;;;;;;;;4853370;29;20088;-78
2022/04/18 12:35:34;;;;;;;5.20;3.15;;;;;;;;;;4852502;29;20025;-79
2022/04/18 12:38:02;;;;;;;5.00;3.13;;;;;;;;;;4841970;29;20041;-78
2022/04/18 12:40:36;;;;;;;4.28;3.13;;;;;;;;;;4860128;29;20025;-78
2022/04/18 12:43:13;;;;;;;5.22;3.00;;;;;;;;;;4843529;29;20041;-79
2022/04/18 12:45:44;;;;;;;4.55;3.08;;;;;;;;;;4858332;29;20033;-79
2022/04/18 12:48:10;;;;;;;4.50;3.20;;;;;;;;;;4856599;29;20184;-78
2022/04/18 12:50:36;;;;;;;5.18;3.10;;;;;;;;;;4856098;29;20073;-77
2022/04/18 12:53:02;;;;;;;5.32;3.20;;;;;;;;;;4840323;29;20133;-78
2022/04/18 12:55:31;;;;;;;4.05;2.90;;;;;;;;;;4852217;29;21381;-77
2022/04/18 12:58:00;;;;;;;5.22;2.85;;;;;;;;;;4863211;29;20037;-79
2022/04/18 13:00:37;;;;;;;5.05;2.88;;;;;;;;;;4843411;29;20055;-78
2022/04/18 13:03:05;;;;;;;3.95;2.80;;;;;;;;;;4844997;29;20069;-77
2022/04/18 13:05:33;;;;;;;5.57;2.75;;;;;;;;;;4866787;29;20045;-78
2022/04/18 13:08:03;;;;;;;4.15;2.70;;;;;;;;;;4863129;29;20044;-78
2022/04/18 13:10:31;;;;;;;5.95;3.25;;;;;;;;;;4861353;29;20470;-80
2022/04/18 13:13:17;;;;;;;5.50;2.88;;;;;;;;;;4860722;29;20037;-78
2022/04/18 13:15:45;;;;;;;4.68;2.78;;;;;;;;;;4862249;29;20037;-78
2022/04/18 13:18:17;;;;;;;4.45;2.70;;;;;;;;;;4861138;29;21972;-78
2022/04/18 13:20:42;;;;;;;4.30;2.95;;;;;;;;;;4869485;29;20125;-77
2022/04/18 13:23:08;;;;;;;3.75;2.53;;;;;;;;;;4853611;29;20597;-76
2022/04/18 13:25:34;;;;;;;4.47;2.65;;;;;;;;;;4873926;29;20387;-80
2022/04/18 13:28:06;;;;;;;4.00;2.83;;;;;;;;;;4858705;29;20515;-76
2022/04/18 13:30:31;;;;;;;5.20;2.85;;;;;;;;;;4863952;29;20454;-81
2022/04/18 13:32:57;;;;;;;3.47;2.40;;;;;;;;;;4868509;29;20051;-78
2022/04/18 13:35:22;;;;;;;5.50;2.35;;;;;;;;;;4871409;29;20475;-77
2022/04/18 13:37:48;;;;;;;5.32;2.60;;;;;;;;;;4854113;29;20128;-79
2022/04/18 13:40:14;;;;;;;3.92;2.72;;;;;;;;;;4854357;29;20211;-77
2022/04/18 13:42:59;;;;;;;3.80;2.78;;;;;;;;;;4866432;29;20033;-78
2022/04/18 13:45:25;;;;;;;5.30;2.90;;;;;;;;;;4830006;29;20091;-77
2022/04/18 13:47:50;;;;;;;4.32;2.55;;;;;;;;;;4825672;29;20521;-77
2022/04/18 13:50:15;;;;;;;4.18;2.58;;;;;;;;;;4831771;29;20045;-78
2022/04/18 13:52:41;;;;;;;4.38;2.70;;;;;;;;;;4832067;29;20348;-82
2022/04/18 13:55:09;;;;;;;4.95;2.80;;;;;;;;;;4825444;29;20523;-77
2022/04/18 13:57:36;;;;;;;3.70;2.38;;;;;;;;;;4819923;29;20034;-82
2022/04/18 14:00:03;;;;;;;5.65;2.72;;;;;;;;;;4814832;29;20071;-76
2022/04/18 14:02:29;;;;;;;4.38;2.90;;;;;;;;;;4818681;29;20042;-76
2022/04/18 14:04:54;;;;;;;4.18;2.53;;;;;;;;;;4830076;29;20627;-77
2022/04/18 14:07:19;;;;;;;3.75;2.40;;;;;;;;;;4815916;29;20058;-80
2022/04/18 14:09:45;;;;;;;3.70;2.42;;;;;;;;;;4830529;29;20034;-80
2022/04/18 14:12:10;;;;;;;3.75;2.35;;;;;;;;;;4815966;29;20052;-80
2022/04/18 14:20:23;;;;;;;4.25;2.38;;;;;;;;;;4874517;29;20088;-82
2022/04/18 14:22:50;;;;;;;4.35;2.63;;;;;;;;;;4871967;29;20551;-79
2022/04/18 14:25:16;;;;;;;3.92;2.60;;;;;;;;;;4872062;29;20081;-76
2022/04/18 14:27:42;;;;;;;3.92;2.30;;;;;;;;;;4867874;29;20037;-83
2022/04/18 14:30:08;;;;;;;4.07;2.42;;;;;;;;;;4852775;29;20608;-79
2022/04/18 14:32:33;;;;;;;3.95;2.70;;;;;;;;;;4867546;29;20069;-77
2022/04/18 14:34:59;;;;;;;5.53;2.55;;;;;;;;;;4872002;29;20030;-83
2022/04/18 14:37:24;;;;;;;4.80;2.35;;;;;;;;;;4867576;29;20068;-79
2022/04/18 14:39:51;;;;;;;4.53;2.17;;;;;;;;;;4870113;29;20047;-81
2022/04/18 14:42:16;;;;;;;5.20;2.20;;;;;;;;;;4864966;29;20041;-82
2022/04/18 14:44:44;;;;;;;3.53;1.98;;;;;;;;;;4850599;29;20029;-79
2022/04/18 14:47:09;;;;;;;3.33;2.10;;;;;;;;;;4859237;29;20048;-81
2022/04/18 14:49:35;;;;;;;4.15;2.30;;;;;;;;;;4868797;29;20029;-80
2022/04/18 14:52:00;;;;;;;4.05;2.40;;;;;;;;;;4866783;29;20029;-81
2022/04/18 14:54:25;;;;;;;4.95;2.45;;;;;;;;;;4834221;29;20097;-80
2022/04/18 14:56:51;;;;;;;3.28;2.10;;;;;;;;;;4863330;29;20155;-80
2022/04/18 14:59:16;;;;;;;5.00;2.53;;;;;;;;;;4866071;29;20112;-78
2022/04/18 15:01:42;;;;;;;3.70;2.13;;;;;;;;;;4866402;29;20703;-79
2022/04/18 15:04:07;;;;;;;5.55;2.53;;;;;;;;;;4852905;29;20039;-79
2022/04/18 15:06:32;;;;;;;3.35;2.30;;;;;;;;;;4863336;29;20085;-80
2022/04/18 15:08:57;;;;;;;3.75;2.35;;;;;;;;;;4846383;29;20041;-80
2022/04/18 15:11:23;;;;;;;4.18;2.35;;;;;;;;;;4857749;29;20564;-77
2022/04/18 15:13:49;;;;;;;4.03;2.25;;;;;;;;;;4848223;29;20029;-79
2022/04/18 15:16:14;;;;;;;3.60;2.20;;;;;;;;;;4847089;29;20056;-82
2022/04/18 15:18:40;;;;;;;4.78;2.75;;;;;;;;;;4843331;29;20138;-80
2022/04/18 15:21:05;;;;;;;3.60;2.50;;;;;;;;;;4849082;29;20642;-82
2022/04/18 15:23:31;;;;;;;6.03;2.65;;;;;;;;;;4862112;29;20025;-76
2022/04/18 15:25:58;;;;;;;4.30;2.40;;;;;;;;;;4867940;29;20769;-77
2022/04/18 15:28:24;;;;;;;4.38;2.28;;;;;;;;;;4850896;29;20761;-80
2022/04/18 15:33:34;;;;;;;4.20;2.08;;;;;;;;;;4860896;29;20458;-82
2022/04/18 15:35:59;;;;;;;4.20;2.25;;;;;;;;;;4857567;29;20021;-79
2022/04/18 15:38:25;;;;;;;3.72;2.28;;;;;;;;;;4844223;29;20064;-82
2022/04/18 15:40:50;;;;;;;4.55;2.20;;;;;;;;;;4848058;29;20956;-80
2022/04/18 15:43:15;;;;;;;3.45;2.08;;;;;;;;;;4841433;29;20036;-79
2022/04/18 15:45:41;;;;;;;3.55;2.20;;;;;;;;;;4842765;29;20055;-80
2022/04/18 15:48:06;;;;;;;4.50;2.10;;;;;;;;;;4855473;29;20047;-80
2022/04/18 15:50:33;;;;;;;3.88;2.47;;;;;;;;;;4848909;29;20045;-82
2022/04/18 15:52:59;;;;;;;3.60;2.10;;;;;;;;;;4849609;29;20025;-81
2022/04/18 15:55:24;;;;;;;3.17;2.00;;;;;;;;;;4839919;29;21588;-78
2022/04/18 15:57:50;;;;;;;3.75;2.10;;;;;;;;;;4859276;29;20029;-80
2022/04/18 16:00:15;;;;;;;6.85;2.10;;;;;;;;;;4860538;29;20556;-81
2022/04/18 16:02:40;;;;;;;2.80;2.03;;;;;;;;;;4853263;29;20044;-82
2022/04/18 16:05:08;;;;;;;4.13;1.92;;;;;;;;;;4841072;29;20040;-80
2022/04/18 16:07:34;;;;;;;3.13;2.15;;;;;;;;;;4856619;29;20037;-80